sensor_id;sensor_type;location;lat;lon;timestamp;P1;durP1;ratioP1;P2;durP2;ratioP2
17858;SDS011;35426;30.698;104.050;2023-08-31T00:01:01;34.30;;;23.30;;
17858;SDS011;35426;30.698;104.050;2023-08-31T00:03:35;39.83;;;23.92;;
17858;SDS011;35426;30.698;104.050;2023-08-31T00:06:08;40.92;;;23.92;;
17858;SDS011;35426;30.698;104.050;2023-08-31T00:08:42;38.97;;;23.58;;
17858;SDS011;35426;30.698;104.050;2023-08-31T00:11:16;39.10;;;24.33;;
17858;SDS011;35426;30.698;104.050;2023-08-31T00:13:49;37.05;;;25.25;;
17858;SDS011;35426;30.698;104.050;2023-08-31T00:16:24;47.70;;;27.08;;
17858;SDS011;35426;30.698;104.050;2023-08-31T00:18:57;46.80;;;28.08;;
17858;SDS011;35426;30.698;104.050;2023-08-31T00:21:30;40.30;;;26.73;;
17858;SDS011;35426;30.698;104.050;2023-08-31T00:24:03;41.92;;;27.52;;
17858;SDS011;35426;30.698;104.050;2023-08-31T00:26:42;47.45;;;27.25;;
17858;SDS011;35426;30.698;104.050;2023-08-31T00:29:15;40.33;;;26.33;;
17858;SDS011;35426;30.698;104.050;2023-08-31T00:31:49;43.92;;;25.48;;
17858;SDS011;35426;30.698;104.050;2023-08-31T00:34:22;46.83;;;25.65;;
17858;SDS011;35426;30.698;104.050;2023-08-31T00:36:56;44.75;;;25.92;;
17858;SDS011;35426;30.698;104.050;2023-08-31T00:39:33;41.30;;;25.20;;
17858;SDS011;35426;30.698;104.050;2023-08-31T00:42:10;36.30;;;25.67;;
17858;SDS011;35426;30.698;104.050;2023-08-31T00:44:44;41.20;;;25.58;;
17858;SDS011;35426;30.698;104.050;2023-08-31T00:47:18;43.22;;;28.80;;
17858;SDS011;35426;30.698;104.050;2023-08-31T00:49:53;45.30;;;28.05;;
17858;SDS011;35426;30.698;104.050;2023-08-31T00:52:27;47.80;;;30.52;;
17858;SDS011;35426;30.698;104.050;2023-08-31T00:55:02;45.47;;;27.75;;
17858;SDS011;35426;30.698;104.050;2023-08-31T00:57:40;43.08;;;27.98;;
17858;SDS011;35426;30.698;104.050;2023-08-31T01:00:14;44.85;;;28.65;;
17858;SDS011;35426;30.698;104.050;2023-08-31T01:02:51;46.65;;;28.25;;
17858;SDS011;35426;30.698;104.050;2023-08-31T01:05:34;44.72;;;28.75;;
17858;SDS011;35426;30.698;104.050;2023-08-31T01:08:21;48.63;;;31.58;;
17858;SDS011;35426;30.698;104.050;2023-08-31T01:11:07;51.88;;;30.90;;
17858;SDS011;35426;30.698;104.050;2023-08-31T01:13:48;46.03;;;31.52;;
17858;SDS011;35426;30.698;104.050;2023-08-31T01:16:28;44.22;;;28.25;;
17858;SDS011;35426;30.698;104.050;2023-08-31T01:19:07;54.72;;;29.40;;
17858;SDS011;35426;30.698;104.050;2023-08-31T01:21:46;42.40;;;28.00;;
17858;SDS011;35426;30.698;104.050;2023-08-31T01:24:24;42.38;;;27.27;;
17858;SDS011;35426;30.698;104.050;2023-08-31T01:26:58;48.95;;;28.45;;
17858;SDS011;35426;30.698;104.050;2023-08-31T01:29:32;39.20;;;26.42;;
17858;SDS011;35426;30.698;104.050;2023-08-31T01:32:06;37.42;;;24.40;;
17858;SDS011;35426;30.698;104.050;2023-08-31T01:34:40;33.03;;;22.40;;
17858;SDS011;35426;30.698;104.050;2023-08-31T01:37:15;36.40;;;24.15;;
17858;SDS011;35426;30.698;104.050;2023-08-31T01:39:55;34.50;;;21.20;;
17858;SDS011;35426;30.698;104.050;2023-08-31T01:42:34;36.13;;;23.08;;
17858;SDS011;35426;30.698;104.050;2023-08-31T01:45:08;34.95;;;22.98;;
17858;SDS011;35426;30.698;104.050;2023-08-31T01:47:43;37.10;;;22.90;;
17858;SDS011;35426;30.698;104.050;2023-08-31T01:50:18;36.45;;;22.55;;
17858;SDS011;35426;30.698;104.050;2023-08-31T01:52:57;32.92;;;22.13;;
17858;SDS011;35426;30.698;104.050;2023-08-31T01:55:32;31.77;;;20.17;;
17858;SDS011;35426;30.698;104.050;2023-08-31T01:58:06;29.42;;;21.15;;
17858;SDS011;35426;30.698;104.050;2023-08-31T02:00:39;35.60;;;23.05;;
17858;SDS011;35426;30.698;104.050;2023-08-31T02:03:15;34.10;;;19.40;;
17858;SDS011;35426;30.698;104.050;2023-08-31T02:05:48;26.27;;;17.05;;
17858;SDS011;35426;30.698;104.050;2023-08-31T02:08:21;29.67;;;18.73;;
17858;SDS011;35426;30.698;104.050;2023-08-31T02:10:59;29.70;;;18.80;;
17858;SDS011;35426;30.698;104.050;2023-08-31T02:13:33;28.88;;;17.75;;
17858;SDS011;35426;30.698;104.050;2023-08-31T02:16:06;28.27;;;19.52;;
17858;SDS011;35426;30.698;104.050;2023-08-31T02:18:41;32.28;;;22.90;;
17858;SDS011;35426;30.698;104.050;2023-08-31T02:21:16;33.13;;;22.55;;
17858;SDS011;35426;30.698;104.050;2023-08-31T02:23:53;37.47;;;22.38;;
17858;SDS011;35426;30.698;104.050;2023-08-31T02:26:30;36.20;;;23.08;;
17858;SDS011;35426;30.698;104.050;2023-08-31T02:29:03;35.45;;;24.98;;
17858;SDS011;35426;30.698;104.050;2023-08-31T02:31:36;35.53;;;22.58;;
17858;SDS011;35426;30.698;104.050;2023-08-31T02:34:12;35.63;;;22.33;;
17858;SDS011;35426;30.698;104.050;2023-08-31T02:36:44;31.45;;;21.90;;
17858;SDS011;35426;30.698;104.050;2023-08-31T02:39:18;36.25;;;21.67;;
17858;SDS011;35426;30.698;104.050;2023-08-31T02:41:54;40.53;;;22.80;;
17858;SDS011;35426;30.698;104.050;2023-08-31T02:44:27;31.55;;;21.33;;
17858;SDS011;35426;30.698;104.050;2023-08-31T02:47:02;35.38;;;21.75;;
17858;SDS011;35426;30.698;104.050;2023-08-31T02:49:36;33.38;;;20.02;;
17858;SDS011;35426;30.698;104.050;2023-08-31T02:52:09;30.20;;;17.95;;
17858;SDS011;35426;30.698;104.050;2023-08-31T02:54:42;23.58;;;14.45;;
17858;SDS011;35426;30.698;104.050;2023-08-31T02:57:17;25.15;;;14.32;;
17858;SDS011;35426;30.698;104.050;2023-08-31T02:59:51;31.40;;;16.77;;
17858;SDS011;35426;30.698;104.050;2023-08-31T03:02:24;26.30;;;17.17;;
17858;SDS011;35426;30.698;104.050;2023-08-31T03:04:57;29.33;;;16.70;;
17858;SDS011;35426;30.698;104.050;2023-08-31T03:07:31;25.65;;;17.38;;
17858;SDS011;35426;30.698;104.050;2023-08-31T03:10:07;21.40;;;16.05;;
17858;SDS011;35426;30.698;104.050;2023-08-31T03:12:44;26.70;;;16.50;;
17858;SDS011;35426;30.698;104.050;2023-08-31T03:15:17;34.35;;;17.85;;
17858;SDS011;35426;30.698;104.050;2023-08-31T03:17:52;30.25;;;19.35;;
17858;SDS011;35426;30.698;104.050;2023-08-31T03:20:26;31.52;;;17.90;;
17858;SDS011;35426;30.698;104.050;2023-08-31T03:23:02;19.50;;;14.63;;
17858;SDS011;35426;30.698;104.050;2023-08-31T03:25:36;21.88;;;14.38;;
17858;SDS011;35426;30.698;104.050;2023-08-31T03:28:11;28.95;;;18.70;;
17858;SDS011;35426;30.698;104.050;2023-08-31T03:30:44;27.83;;;18.23;;
17858;SDS011;35426;30.698;104.050;2023-08-31T03:33:18;27.92;;;16.73;;
17858;SDS011;35426;30.698;104.050;2023-08-31T03:35:51;21.10;;;14.50;;
17858;SDS011;35426;30.698;104.050;2023-08-31T03:38:26;18.17;;;13.05;;
17858;SDS011;35426;30.698;104.050;2023-08-31T03:41:00;21.85;;;14.70;;
17858;SDS011;35426;30.698;104.050;2023-08-31T03:43:35;23.25;;;15.43;;
17858;SDS011;35426;30.698;104.050;2023-08-31T03:46:08;28.50;;;15.80;;
17858;SDS011;35426;30.698;104.050;2023-08-31T03:48:41;26.85;;;15.38;;
17858;SDS011;35426;30.698;104.050;2023-08-31T03:51:16;20.20;;;12.98;;
17858;SDS011;35426;30.698;104.050;2023-08-31T03:53:49;18.15;;;12.85;;
17858;SDS011;35426;30.698;104.050;2023-08-31T03:56:23;20.60;;;10.85;;
17858;SDS011;35426;30.698;104.050;2023-08-31T03:59:03;20.52;;;11.40;;
17858;SDS011;35426;30.698;104.050;2023-08-31T04:01:37;15.95;;;10.27;;
17858;SDS011;35426;30.698;104.050;2023-08-31T04:04:12;18.08;;;12.25;;
17858;SDS011;35426;30.698;104.050;2023-08-31T04:06:47;23.70;;;12.68;;
17858;SDS011;35426;30.698;104.050;2023-08-31T04:09:20;21.25;;;13.25;;
17858;SDS011;35426;30.698;104.050;2023-08-31T04:11:54;18.88;;;13.68;;
17858;SDS011;35426;30.698;104.050;2023-08-31T04:14:33;19.05;;;12.80;;
17858;SDS011;35426;30.698;104.050;2023-08-31T04:17:06;17.70;;;11.60;;
17858;SDS011;35426;30.698;104.050;2023-08-31T04:19:39;15.55;;;11.23;;
17858;SDS011;35426;30.698;104.050;2023-08-31T04:22:13;16.15;;;11.57;;
17858;SDS011;35426;30.698;104.050;2023-08-31T04:24:45;20.40;;;13.25;;
17858;SDS011;35426;30.698;104.050;2023-08-31T04:27:19;22.75;;;13.77;;
17858;SDS011;35426;30.698;104.050;2023-08-31T04:29:53;23.02;;;15.13;;
17858;SDS011;35426;30.698;104.050;2023-08-31T04:32:27;22.98;;;16.20;;
17858;SDS011;35426;30.698;104.050;2023-08-31T04:35:00;23.30;;;15.55;;
17858;SDS011;35426;30.698;104.050;2023-08-31T04:37:34;21.75;;;16.88;;
17858;SDS011;35426;30.698;104.050;2023-08-31T04:40:08;25.70;;;14.05;;
17858;SDS011;35426;30.698;104.050;2023-08-31T04:42:41;18.13;;;12.48;;
17858;SDS011;35426;30.698;104.050;2023-08-31T04:45:16;20.65;;;12.63;;
17858;SDS011;35426;30.698;104.050;2023-08-31T04:47:50;21.63;;;13.07;;
17858;SDS011;35426;30.698;104.050;2023-08-31T04:50:23;16.60;;;13.10;;
17858;SDS011;35426;30.698;104.050;2023-08-31T04:52:56;24.17;;;13.32;;
17858;SDS011;35426;30.698;104.050;2023-08-31T04:55:29;26.10;;;14.40;;
17858;SDS011;35426;30.698;104.050;2023-08-31T04:58:02;25.17;;;17.17;;
17858;SDS011;35426;30.698;104.050;2023-08-31T05:00:37;28.80;;;17.42;;
17858;SDS011;35426;30.698;104.050;2023-08-31T05:03:12;20.73;;;14.30;;
17858;SDS011;35426;30.698;104.050;2023-08-31T05:05:45;21.35;;;13.43;;
17858;SDS011;35426;30.698;104.050;2023-08-31T05:08:18;16.33;;;12.57;;
17858;SDS011;35426;30.698;104.050;2023-08-31T05:10:51;21.17;;;11.77;;
17858;SDS011;35426;30.698;104.050;2023-08-31T05:13:24;13.63;;;10.80;;
17858;SDS011;35426;30.698;104.050;2023-08-31T05:15:59;15.18;;;10.13;;
17858;SDS011;35426;30.698;104.050;2023-08-31T05:18:33;12.77;;;9.60;;
17858;SDS011;35426;30.698;104.050;2023-08-31T05:21:06;11.63;;;9.23;;
17858;SDS011;35426;30.698;104.050;2023-08-31T05:23:40;15.65;;;9.90;;
17858;SDS011;35426;30.698;104.050;2023-08-31T05:26:13;20.40;;;10.77;;
17858;SDS011;35426;30.698;104.050;2023-08-31T05:28:46;15.43;;;9.27;;
17858;SDS011;35426;30.698;104.050;2023-08-31T05:31:21;18.85;;;10.93;;
17858;SDS011;35426;30.698;104.050;2023-08-31T05:33:54;14.90;;;11.07;;
17858;SDS011;35426;30.698;104.050;2023-08-31T05:36:27;16.67;;;10.45;;
17858;SDS011;35426;30.698;104.050;2023-08-31T05:39:01;14.82;;;10.13;;
17858;SDS011;35426;30.698;104.050;2023-08-31T05:41:35;19.52;;;11.15;;
17858;SDS011;35426;30.698;104.050;2023-08-31T05:44:11;13.48;;;10.40;;
17858;SDS011;35426;30.698;104.050;2023-08-31T05:46:46;13.20;;;9.90;;
17858;SDS011;35426;30.698;104.050;2023-08-31T05:49:20;15.98;;;10.18;;
17858;SDS011;35426;30.698;104.050;2023-08-31T05:51:53;17.67;;;10.35;;
17858;SDS011;35426;30.698;104.050;2023-08-31T05:54:26;16.55;;;9.95;;
17858;SDS011;35426;30.698;104.050;2023-08-31T05:57:02;15.25;;;9.68;;
17858;SDS011;35426;30.698;104.050;2023-08-31T05:59:35;15.90;;;8.98;;
17858;SDS011;35426;30.698;104.050;2023-08-31T06:02:10;11.45;;;8.63;;
17858;SDS011;35426;30.698;104.050;2023-08-31T06:04:43;13.02;;;9.10;;
17858;SDS011;35426;30.698;104.050;2023-08-31T06:07:17;11.98;;;8.90;;
17858;SDS011;35426;30.698;104.050;2023-08-31T06:09:51;10.18;;;8.63;;
17858;SDS011;35426;30.698;104.050;2023-08-31T06:12:24;14.43;;;8.35;;
17858;SDS011;35426;30.698;104.050;2023-08-31T06:14:58;11.05;;;8.25;;
17858;SDS011;35426;30.698;104.050;2023-08-31T06:17:35;11.55;;;7.88;;
17858;SDS011;35426;30.698;104.050;2023-08-31T06:20:09;12.50;;;8.10;;
17858;SDS011;35426;30.698;104.050;2023-08-31T06:22:46;14.02;;;8.20;;
17858;SDS011;35426;30.698;104.050;2023-08-31T06:25:19;11.85;;;8.70;;
17858;SDS011;35426;30.698;104.050;2023-08-31T06:27:54;9.80;;;8.27;;
17858;SDS011;35426;30.698;104.050;2023-08-31T06:30:27;11.20;;;8.23;;
17858;SDS011;35426;30.698;104.050;2023-08-31T06:33:02;19.30;;;10.25;;
17858;SDS011;35426;30.698;104.050;2023-08-31T06:35:37;14.98;;;9.70;;
17858;SDS011;35426;30.698;104.050;2023-08-31T06:38:11;9.63;;;8.63;;
17858;SDS011;35426;30.698;104.050;2023-08-31T06:40:44;11.05;;;9.00;;
17858;SDS011;35426;30.698;104.050;2023-08-31T06:43:18;12.50;;;8.70;;
17858;SDS011;35426;30.698;104.050;2023-08-31T06:45:52;13.45;;;8.57;;
17858;SDS011;35426;30.698;104.050;2023-08-31T06:48:47;13.88;;;8.80;;
17858;SDS011;35426;30.698;104.050;2023-08-31T06:51:21;14.77;;;8.60;;
17858;SDS011;35426;30.698;104.050;2023-08-31T06:53:55;16.92;;;8.70;;
17858;SDS011;35426;30.698;104.050;2023-08-31T06:56:35;13.40;;;8.60;;
17858;SDS011;35426;30.698;104.050;2023-08-31T06:59:08;10.77;;;8.93;;
17858;SDS011;35426;30.698;104.050;2023-08-31T07:01:42;14.18;;;9.07;;
17858;SDS011;35426;30.698;104.050;2023-08-31T07:04:17;18.60;;;10.18;;
17858;SDS011;35426;30.698;104.050;2023-08-31T07:06:50;19.50;;;10.23;;
17858;SDS011;35426;30.698;104.050;2023-08-31T07:09:24;16.77;;;10.23;;
17858;SDS011;35426;30.698;104.050;2023-08-31T07:11:58;13.82;;;10.48;;
17858;SDS011;35426;30.698;104.050;2023-08-31T07:14:34;18.55;;;10.10;;
17858;SDS011;35426;30.698;104.050;2023-08-31T07:17:07;17.48;;;10.45;;
17858;SDS011;35426;30.698;104.050;2023-08-31T07:19:51;17.08;;;9.68;;
17858;SDS011;35426;30.698;104.050;2023-08-31T07:22:24;13.50;;;9.57;;
17858;SDS011;35426;30.698;104.050;2023-08-31T07:24:57;13.57;;;10.75;;
17858;SDS011;35426;30.698;104.050;2023-08-31T07:27:30;17.60;;;10.65;;
17858;SDS011;35426;30.698;104.050;2023-08-31T07:30:04;14.90;;;9.90;;
17858;SDS011;35426;30.698;104.050;2023-08-31T07:32:39;12.77;;;10.13;;
17858;SDS011;35426;30.698;104.050;2023-08-31T07:35:16;15.93;;;9.70;;
17858;SDS011;35426;30.698;104.050;2023-08-31T07:37:50;12.55;;;9.75;;
17858;SDS011;35426;30.698;104.050;2023-08-31T07:40:24;12.65;;;9.82;;
17858;SDS011;35426;30.698;104.050;2023-08-31T07:42:57;18.73;;;10.73;;
17858;SDS011;35426;30.698;104.050;2023-08-31T07:45:31;14.57;;;11.00;;
17858;SDS011;35426;30.698;104.050;2023-08-31T07:48:05;15.20;;;10.43;;
17858;SDS011;35426;30.698;104.050;2023-08-31T07:50:43;15.05;;;10.95;;
17858;SDS011;35426;30.698;104.050;2023-08-31T07:53:18;14.75;;;10.52;;
17858;SDS011;35426;30.698;104.050;2023-08-31T07:55:54;18.25;;;11.23;;
17858;SDS011;35426;30.698;104.050;2023-08-31T07:58:27;15.80;;;11.50;;
17858;SDS011;35426;30.698;104.050;2023-08-31T08:01:02;16.38;;;11.43;;
17858;SDS011;35426;30.698;104.050;2023-08-31T08:03:35;16.90;;;11.77;;
17858;SDS011;35426;30.698;104.050;2023-08-31T08:06:10;17.15;;;11.02;;
17858;SDS011;35426;30.698;104.050;2023-08-31T08:08:45;19.70;;;11.73;;
17858;SDS011;35426;30.698;104.050;2023-08-31T08:11:19;15.85;;;11.23;;
17858;SDS011;35426;30.698;104.050;2023-08-31T08:13:54;18.55;;;12.38;;
17858;SDS011;35426;30.698;104.050;2023-08-31T08:16:29;13.77;;;11.07;;
17858;SDS011;35426;30.698;104.050;2023-08-31T08:19:05;15.57;;;11.18;;
17858;SDS011;35426;30.698;104.050;2023-08-31T08:21:41;14.23;;;10.80;;
17858;SDS011;35426;30.698;104.050;2023-08-31T08:24:14;18.05;;;11.98;;
17858;SDS011;35426;30.698;104.050;2023-08-31T08:26:48;16.75;;;11.00;;
17858;SDS011;35426;30.698;104.050;2023-08-31T08:29:22;17.92;;;11.35;;
17858;SDS011;35426;30.698;104.050;2023-08-31T08:31:55;17.33;;;11.68;;
17858;SDS011;35426;30.698;104.050;2023-08-31T08:34:28;15.65;;;11.07;;
17858;SDS011;35426;30.698;104.050;2023-08-31T08:37:04;19.02;;;11.68;;
17858;SDS011;35426;30.698;104.050;2023-08-31T08:39:37;15.60;;;11.27;;
17858;SDS011;35426;30.698;104.050;2023-08-31T08:42:10;16.30;;;11.55;;
17858;SDS011;35426;30.698;104.050;2023-08-31T08:44:44;19.60;;;11.57;;
17858;SDS011;35426;30.698;104.050;2023-08-31T08:47:17;18.48;;;10.90;;
17858;SDS011;35426;30.698;104.050;2023-08-31T08:49:50;18.02;;;11.50;;
17858;SDS011;35426;30.698;104.050;2023-08-31T08:52:27;18.63;;;11.30;;
17858;SDS011;35426;30.698;104.050;2023-08-31T08:55:01;18.70;;;11.75;;
17858;SDS011;35426;30.698;104.050;2023-08-31T08:57:35;15.50;;;11.35;;
17858;SDS011;35426;30.698;104.050;2023-08-31T09:00:08;17.88;;;11.20;;
17858;SDS011;35426;30.698;104.050;2023-08-31T09:02:49;15.27;;;11.73;;
17858;SDS011;35426;30.698;104.050;2023-08-31T09:05:27;19.08;;;11.27;;
17858;SDS011;35426;30.698;104.050;2023-08-31T09:08:12;19.45;;;11.45;;
17858;SDS011;35426;30.698;104.050;2023-08-31T09:10:47;16.38;;;11.93;;
17858;SDS011;35426;30.698;104.050;2023-08-31T09:13:21;20.27;;;11.05;;
17858;SDS011;35426;30.698;104.050;2023-08-31T09:15:59;15.40;;;11.50;;
17858;SDS011;35426;30.698;104.050;2023-08-31T09:18:33;16.65;;;10.70;;
17858;SDS011;35426;30.698;104.050;2023-08-31T09:21:10;14.20;;;10.35;;
17858;SDS011;35426;30.698;104.050;2023-08-31T09:23:47;14.98;;;11.23;;
17858;SDS011;35426;30.698;104.050;2023-08-31T09:26:29;17.40;;;11.43;;
17858;SDS011;35426;30.698;104.050;2023-08-31T09:29:10;20.75;;;12.93;;
17858;SDS011;35426;30.698;104.050;2023-08-31T09:31:44;27.55;;;15.98;;
17858;SDS011;35426;30.698;104.050;2023-08-31T09:34:22;26.20;;;15.18;;
17858;SDS011;35426;30.698;104.050;2023-08-31T09:37:05;25.80;;;15.30;;
17858;SDS011;35426;30.698;104.050;2023-08-31T09:39:41;28.20;;;15.98;;
17858;SDS011;35426;30.698;104.050;2023-08-31T09:42:14;22.88;;;15.00;;
17858;SDS011;35426;30.698;104.050;2023-08-31T09:44:50;26.85;;;14.88;;
17858;SDS011;35426;30.698;104.050;2023-08-31T09:47:24;21.25;;;14.88;;
17858;SDS011;35426;30.698;104.050;2023-08-31T09:49:57;24.65;;;14.82;;
17858;SDS011;35426;30.698;104.050;2023-08-31T09:52:33;25.77;;;15.30;;
17858;SDS011;35426;30.698;104.050;2023-08-31T09:55:08;26.42;;;14.75;;
17858;SDS011;35426;30.698;104.050;2023-08-31T09:57:41;23.13;;;15.10;;
17858;SDS011;35426;30.698;104.050;2023-08-31T10:00:24;30.60;;;16.52;;
17858;SDS011;35426;30.698;104.050;2023-08-31T10:03:00;26.40;;;15.98;;
17858;SDS011;35426;30.698;104.050;2023-08-31T10:05:35;27.92;;;17.13;;
17858;SDS011;35426;30.698;104.050;2023-08-31T10:08:08;29.45;;;17.38;;
17858;SDS011;35426;30.698;104.050;2023-08-31T10:10:43;24.20;;;16.77;;
17858;SDS011;35426;30.698;104.050;2023-08-31T10:13:16;30.48;;;17.02;;
17858;SDS011;35426;30.698;104.050;2023-08-31T10:15:53;27.95;;;17.02;;
17858;SDS011;35426;30.698;104.050;2023-08-31T10:18:26;29.70;;;17.95;;
17858;SDS011;35426;30.698;104.050;2023-08-31T10:21:01;27.33;;;16.60;;
17858;SDS011;35426;30.698;104.050;2023-08-31T10:23:35;26.85;;;16.20;;
17858;SDS011;35426;30.698;104.050;2023-08-31T10:26:27;34.33;;;17.55;;
17858;SDS011;35426;30.698;104.050;2023-08-31T10:29:00;32.25;;;16.80;;
17858;SDS011;35426;30.698;104.050;2023-08-31T10:31:36;25.15;;;16.67;;
17858;SDS011;35426;30.698;104.050;2023-08-31T10:34:10;28.20;;;16.48;;
17858;SDS011;35426;30.698;104.050;2023-08-31T10:36:44;29.70;;;16.73;;
17858;SDS011;35426;30.698;104.050;2023-08-31T10:39:38;27.58;;;17.23;;
17858;SDS011;35426;30.698;104.050;2023-08-31T10:42:13;23.08;;;15.82;;
17858;SDS011;35426;30.698;104.050;2023-08-31T10:44:46;30.70;;;16.77;;
17858;SDS011;35426;30.698;104.050;2023-08-31T10:47:22;35.80;;;17.77;;
17858;SDS011;35426;30.698;104.050;2023-08-31T10:50:16;26.70;;;17.45;;
17858;SDS011;35426;30.698;104.050;2023-08-31T10:52:52;27.52;;;17.30;;
17858;SDS011;35426;30.698;104.050;2023-08-31T10:55:25;25.45;;;17.38;;
17858;SDS011;35426;30.698;104.050;2023-08-31T10:58:11;27.95;;;17.40;;
17858;SDS011;35426;30.698;104.050;2023-08-31T11:00:47;26.77;;;17.08;;
17858;SDS011;35426;30.698;104.050;2023-08-31T11:03:25;29.05;;;18.13;;
17858;SDS011;35426;30.698;104.050;2023-08-31T11:06:01;27.20;;;17.23;;
17858;SDS011;35426;30.698;104.050;2023-08-31T11:08:34;26.80;;;17.20;;
17858;SDS011;35426;30.698;104.050;2023-08-31T11:11:07;28.00;;;16.65;;
17858;SDS011;35426;30.698;104.050;2023-08-31T11:13:43;24.63;;;16.23;;
17858;SDS011;35426;30.698;104.050;2023-08-31T11:16:16;22.63;;;15.07;;
17858;SDS011;35426;30.698;104.050;2023-08-31T11:18:50;25.85;;;15.48;;
17858;SDS011;35426;30.698;104.050;2023-08-31T11:21:25;28.13;;;15.82;;
17858;SDS011;35426;30.698;104.050;2023-08-31T11:23:58;22.48;;;15.18;;
17858;SDS011;35426;30.698;104.050;2023-08-31T11:26:32;25.73;;;16.07;;
17858;SDS011;35426;30.698;104.050;2023-08-31T11:29:10;27.63;;;16.13;;
17858;SDS011;35426;30.698;104.050;2023-08-31T11:31:44;28.83;;;15.83;;
17858;SDS011;35426;30.698;104.050;2023-08-31T11:34:18;25.67;;;17.00;;
17858;SDS011;35426;30.698;104.050;2023-08-31T11:36:53;25.97;;;16.87;;
17858;SDS011;35426;30.698;104.050;2023-08-31T11:39:27;30.70;;;17.33;;
17858;SDS011;35426;30.698;104.050;2023-08-31T11:42:01;32.27;;;18.53;;
17858;SDS011;35426;30.698;104.050;2023-08-31T11:44:38;31.90;;;18.23;;
17858;SDS011;35426;30.698;104.050;2023-08-31T11:47:11;35.43;;;19.67;;
17858;SDS011;35426;30.698;104.050;2023-08-31T11:49:45;28.83;;;18.03;;
17858;SDS011;35426;30.698;104.050;2023-08-31T11:52:19;32.10;;;18.87;;
17858;SDS011;35426;30.698;104.050;2023-08-31T11:54:53;34.43;;;19.03;;
17858;SDS011;35426;30.698;104.050;2023-08-31T11:57:26;29.97;;;19.07;;
17858;SDS011;35426;30.698;104.050;2023-08-31T12:00:02;30.10;;;19.77;;
17858;SDS011;35426;30.698;104.050;2023-08-31T12:02:40;30.53;;;18.10;;
17858;SDS011;35426;30.698;104.050;2023-08-31T12:05:15;29.23;;;18.17;;
17858;SDS011;35426;30.698;104.050;2023-08-31T12:07:48;29.83;;;17.80;;
17858;SDS011;35426;30.698;104.050;2023-08-31T12:10:24;32.67;;;18.07;;
17858;SDS011;35426;30.698;104.050;2023-08-31T12:13:08;29.67;;;17.47;;
17858;SDS011;35426;30.698;104.050;2023-08-31T12:15:44;31.77;;;18.60;;
17858;SDS011;35426;30.698;104.050;2023-08-31T12:18:18;29.23;;;17.97;;
17858;SDS011;35426;30.698;104.050;2023-08-31T12:20:52;33.17;;;18.10;;
17858;SDS011;35426;30.698;104.050;2023-08-31T12:23:26;28.40;;;18.63;;
17858;SDS011;35426;30.698;104.050;2023-08-31T12:25:59;27.93;;;18.60;;
17858;SDS011;35426;30.698;104.050;2023-08-31T12:28:34;33.00;;;18.93;;
17858;SDS011;35426;30.698;104.050;2023-08-31T12:31:11;31.27;;;18.93;;
17858;SDS011;35426;30.698;104.050;2023-08-31T12:33:44;35.00;;;19.70;;
17858;SDS011;35426;30.698;104.050;2023-08-31T12:36:18;32.13;;;19.97;;
17858;SDS011;35426;30.698;104.050;2023-08-31T12:38:50;34.50;;;19.77;;
17858;SDS011;35426;30.698;104.050;2023-08-31T12:41:24;36.10;;;20.37;;
17858;SDS011;35426;30.698;104.050;2023-08-31T12:43:58;36.77;;;19.87;;
17858;SDS011;35426;30.698;104.050;2023-08-31T12:46:33;38.80;;;21.60;;
17858;SDS011;35426;30.698;104.050;2023-08-31T12:49:08;41.00;;;21.70;;
17858;SDS011;35426;30.698;104.050;2023-08-31T12:51:41;34.37;;;21.10;;
17858;SDS011;35426;30.698;104.050;2023-08-31T12:54:16;37.57;;;23.53;;
17858;SDS011;35426;30.698;104.050;2023-08-31T12:56:49;40.23;;;21.00;;
17858;SDS011;35426;30.698;104.050;2023-08-31T12:59:22;43.90;;;22.93;;
17858;SDS011;35426;30.698;104.050;2023-08-31T13:01:57;41.03;;;24.30;;
17858;SDS011;35426;30.698;104.050;2023-08-31T13:04:33;46.07;;;22.47;;
17858;SDS011;35426;30.698;104.050;2023-08-31T13:07:08;46.53;;;24.33;;
17858;SDS011;35426;30.698;104.050;2023-08-31T13:09:42;41.17;;;22.40;;
17858;SDS011;35426;30.698;104.050;2023-08-31T13:12:15;48.77;;;23.70;;
17858;SDS011;35426;30.698;104.050;2023-08-31T13:14:50;43.47;;;23.97;;
17858;SDS011;35426;30.698;104.050;2023-08-31T13:17:27;47.63;;;24.63;;
17858;SDS011;35426;30.698;104.050;2023-08-31T13:20:01;47.37;;;24.03;;
17858;SDS011;35426;30.698;104.050;2023-08-31T13:22:34;43.83;;;24.73;;
17858;SDS011;35426;30.698;104.050;2023-08-31T13:25:08;43.40;;;24.27;;
17858;SDS011;35426;30.698;104.050;2023-08-31T13:27:42;40.43;;;23.70;;
17858;SDS011;35426;30.698;104.050;2023-08-31T13:30:15;42.13;;;23.63;;
17858;SDS011;35426;30.698;104.050;2023-08-31T13:32:50;42.73;;;24.27;;
17858;SDS011;35426;30.698;104.050;2023-08-31T13:35:34;45.97;;;25.07;;
17858;SDS011;35426;30.698;104.050;2023-08-31T13:38:07;41.80;;;25.30;;
17858;SDS011;35426;30.698;104.050;2023-08-31T13:40:40;43.27;;;26.10;;
17858;SDS011;35426;30.698;104.050;2023-08-31T13:43:15;48.90;;;26.07;;
17858;SDS011;35426;30.698;104.050;2023-08-31T13:45:47;47.27;;;27.07;;
17858;SDS011;35426;30.698;104.050;2023-08-31T13:48:22;58.10;;;24.87;;
17858;SDS011;35426;30.698;104.050;2023-08-31T13:50:58;43.17;;;24.17;;
17858;SDS011;35426;30.698;104.050;2023-08-31T13:53:32;42.00;;;25.33;;
17858;SDS011;35426;30.698;104.050;2023-08-31T13:56:05;42.97;;;25.47;;
17858;SDS011;35426;30.698;104.050;2023-08-31T13:58:39;42.60;;;25.37;;
17858;SDS011;35426;30.698;104.050;2023-08-31T14:01:12;39.17;;;24.97;;
17858;SDS011;35426;30.698;104.050;2023-08-31T14:03:47;40.50;;;25.63;;
17858;SDS011;35426;30.698;104.050;2023-08-31T14:06:20;48.53;;;27.30;;
17858;SDS011;35426;30.698;104.050;2023-08-31T14:08:54;53.07;;;28.17;;
17858;SDS011;35426;30.698;104.050;2023-08-31T14:11:27;44.20;;;26.70;;
17858;SDS011;35426;30.698;104.050;2023-08-31T14:14:02;40.87;;;26.97;;
17858;SDS011;35426;30.698;104.050;2023-08-31T14:16:41;48.77;;;27.03;;
17858;SDS011;35426;30.698;104.050;2023-08-31T14:19:16;44.37;;;26.77;;
17858;SDS011;35426;30.698;104.050;2023-08-31T14:21:49;47.73;;;26.77;;
17858;SDS011;35426;30.698;104.050;2023-08-31T14:24:22;47.20;;;28.73;;
17858;SDS011;35426;30.698;104.050;2023-08-31T14:26:56;48.17;;;29.50;;
17858;SDS011;35426;30.698;104.050;2023-08-31T14:29:29;45.80;;;29.43;;
17858;SDS011;35426;30.698;104.050;2023-08-31T14:32:02;44.37;;;30.30;;
17858;SDS011;35426;30.698;104.050;2023-08-31T14:34:37;47.87;;;30.03;;
17858;SDS011;35426;30.698;104.050;2023-08-31T14:37:10;45.60;;;30.37;;
17858;SDS011;35426;30.698;104.050;2023-08-31T14:39:46;46.57;;;28.90;;
17858;SDS011;35426;30.698;104.050;2023-08-31T14:42:25;43.53;;;28.80;;